RJNH(METAR)
12/16 16:00
METAR RJNH 160700Z 28010KT 9999 FEW020 OVC100 09/M00 Q1013 RMK
1CU020 8AS100 A2992=
戻る
トップページへ戻る
IMOC Co,.Ltd.